createdAt,value
2022-12-24T00:00:10.633Z,77.87
2022-12-24T00:01:10.612Z,77.56
2022-12-24T00:02:10.795Z,77.67
2022-12-24T00:03:10.778Z,77.76
2022-12-24T00:04:10.583Z,77.56
2022-12-24T00:05:10.569Z,77.26
2022-12-24T00:06:10.547Z,77.46
2022-12-24T00:07:10.525Z,78.08
2022-12-24T00:08:10.519Z,78.28
2022-12-24T00:09:10.517Z,77.56
2022-12-24T00:10:10.523Z,77.56
2022-12-24T00:11:17.621Z,77.97
2022-12-24T00:12:10.474Z,78.59
2022-12-24T00:13:10.446Z,78.38
2022-12-24T00:14:10.456Z,78.08
2022-12-24T00:15:10.477Z,78.28
2022-12-24T00:16:10.406Z,78.17
2022-12-24T00:17:10.499Z,78.28
2022-12-24T00:18:10.396Z,78.49
2022-12-24T00:19:10.396Z,78.59
2022-12-24T00:20:10.363Z,78.79
2022-12-24T00:21:10.353Z,79.00
2022-12-24T00:22:10.354Z,79.61
2022-12-24T00:23:10.326Z,79.50
2022-12-24T00:24:10.330Z,79.03
2022-12-24T00:25:10.308Z,79.30
2022-12-24T00:26:10.281Z,79.41
2022-12-24T00:27:10.269Z,79.20
2022-12-24T00:28:10.257Z,80.02
2022-12-24T00:29:10.256Z,80.33
2022-12-24T00:30:10.228Z,80.36
2022-12-24T00:31:10.352Z,80.16
2022-12-24T00:32:10.209Z,80.57
2022-12-24T00:33:10.222Z,81.08
2022-12-24T00:34:10.187Z,80.26
2022-12-24T00:35:10.177Z,80.05
2022-12-24T00:36:10.172Z,80.16
2022-12-24T00:37:10.136Z,79.96
2022-12-24T00:38:10.146Z,80.16
2022-12-24T00:39:10.130Z,80.36
2022-12-24T00:40:10.104Z,80.46
2022-12-24T00:41:10.096Z,80.46
2022-12-24T00:42:10.080Z,80.67
2022-12-24T00:43:10.077Z,80.77
2022-12-24T00:44:10.075Z,80.88
2022-12-24T00:45:10.045Z,80.88
2022-12-24T00:46:10.069Z,81.29
2022-12-24T00:47:12.161Z,80.57
2022-12-24T00:48:10.019Z,80.05
2022-12-24T00:49:10.008Z,80.46
2022-12-24T00:50:09.978Z,80.77
2022-12-24T00:51:10.050Z,80.98
2022-12-24T00:52:09.955Z,81.18
2022-12-24T00:53:09.943Z,81.38
2022-12-24T00:54:09.930Z,81.18
2022-12-24T00:55:09.904Z,80.98
2022-12-24T00:56:09.905Z,80.91
2022-12-24T00:57:09.900Z,81.43
2022-12-24T00:58:09.865Z,81.22
2022-12-24T00:59:10.897Z,81.01
2022-12-24T01:00:10.177Z,81.01
2022-12-24T01:01:09.907Z,81.43
2022-12-24T01:02:10.031Z,81.63
2022-12-24T01:03:09.931Z,81.84
2022-12-24T01:04:09.801Z,81.94
2022-12-24T01:05:09.768Z,81.43
2022-12-24T01:06:09.758Z,81.01
2022-12-24T01:07:09.748Z,81.01
2022-12-24T01:08:09.735Z,81.01
2022-12-24T01:09:09.732Z,81.22
2022-12-24T01:10:09.709Z,82.04
2022-12-24T01:11:09.688Z,81.73
2022-12-24T01:12:09.679Z,81.63
2022-12-24T01:13:09.658Z,81.22
2022-12-24T01:14:09.668Z,80.91
2022-12-24T01:15:09.649Z,80.60
2022-12-24T01:16:09.705Z,79.99
2022-12-24T01:17:09.621Z,79.99
2022-12-24T01:18:09.598Z,80.19
2022-12-24T01:19:09.604Z,80.30
2022-12-24T01:20:09.567Z,80.71
2022-12-24T01:21:09.569Z,80.81
2022-12-24T01:22:09.560Z,80.71
2022-12-24T01:23:09.528Z,81.01
2022-12-24T01:24:09.539Z,81.32
2022-12-24T01:25:09.516Z,81.52
2022-12-24T01:26:09.498Z,81.32
2022-12-24T01:27:09.512Z,81.01
2022-12-24T01:28:09.469Z,80.60
2022-12-24T01:29:09.468Z,81.12
2022-12-24T01:30:09.439Z,81.01
2022-12-24T01:31:09.493Z,80.81
2022-12-24T01:32:09.420Z,80.91
2022-12-24T01:33:09.399Z,81.01
2022-12-24T01:34:09.408Z,81.22
2022-12-24T01:35:09.388Z,81.01
2022-12-24T01:36:09.371Z,80.91
2022-12-24T01:37:09.342Z,81.22
2022-12-24T01:38:09.339Z,81.43
2022-12-24T01:39:09.339Z,81.94
2022-12-24T01:40:09.317Z,81.94
2022-12-24T01:41:09.332Z,81.94
2022-12-24T01:42:09.301Z,82.24
2022-12-24T01:43:09.269Z,82.45
2022-12-24T01:44:09.282Z,82.14
2022-12-24T01:45:09.249Z,82.04
2022-12-24T01:46:09.303Z,82.59
2022-12-24T01:47:09.250Z,81.15
2022-12-24T01:48:09.229Z,80.95
2022-12-24T01:49:09.207Z,80.54
2022-12-24T01:50:09.180Z,80.40
2022-12-24T01:51:09.177Z,80.60
2022-12-24T01:52:09.167Z,80.81
2022-12-24T01:53:09.138Z,81.01
2022-12-24T01:54:09.147Z,81.32
2022-12-24T01:55:09.109Z,81.43
2022-12-24T01:56:09.106Z,81.01
2022-12-24T01:57:09.089Z,80.81
2022-12-24T01:58:09.096Z,81.52
2022-12-24T01:59:09.088Z,81.43
2022-12-24T02:00:09.069Z,81.22
2022-12-24T02:01:09.195Z,80.81
2022-12-24T02:02:09.160Z,80.71
2022-12-24T02:03:09.117Z,80.60
2022-12-24T02:04:09.007Z,80.60
2022-12-24T02:05:09.002Z,80.81
2022-12-24T02:06:08.968Z,81.01
2022-12-24T02:07:08.979Z,80.91
2022-12-24T02:08:08.962Z,81.01
2022-12-24T02:09:08.930Z,81.12
2022-12-24T02:10:08.929Z,81.22
2022-12-24T02:11:08.913Z,81.32
2022-12-24T02:12:08.891Z,81.43
2022-12-24T02:13:08.880Z,80.91
2022-12-24T02:14:08.859Z,81.01
2022-12-24T02:15:08.869Z,81.32
2022-12-24T02:16:08.924Z,81.43
2022-12-24T02:17:08.848Z,80.91
2022-12-24T02:18:08.901Z,81.01
2022-12-24T02:19:08.800Z,81.01
2022-12-24T02:20:08.803Z,81.01
2022-12-24T02:21:08.790Z,81.01
2022-12-24T02:22:08.763Z,81.12
2022-12-24T02:23:08.743Z,80.71
2022-12-24T02:24:08.744Z,80.81
2022-12-24T02:25:08.730Z,81.12
2022-12-24T02:26:08.734Z,80.91
2022-12-24T02:27:08.691Z,81.12
2022-12-24T02:28:08.680Z,81.52
2022-12-24T02:29:08.660Z,81.52
2022-12-24T02:30:08.691Z,81.73
2022-12-24T02:31:08.693Z,81.52
2022-12-24T02:32:08.641Z,81.43
2022-12-24T02:33:08.619Z,81.32
2022-12-24T02:34:08.609Z,81.43
2022-12-24T02:35:08.600Z,81.22
2022-12-24T02:36:08.581Z,81.12
2022-12-24T02:37:08.557Z,81.12
2022-12-24T02:38:08.550Z,81.22
2022-12-24T02:39:08.532Z,81.43
2022-12-24T02:40:15.761Z,81.32
2022-12-24T02:41:09.510Z,81.43
2022-12-24T02:42:08.515Z,81.22
2022-12-24T02:43:08.481Z,81.01
2022-12-24T02:44:08.471Z,81.22
2022-12-24T02:45:08.490Z,81.22
2022-12-24T02:46:08.529Z,81.32
2022-12-24T02:47:08.569Z,81.43
2022-12-24T02:48:08.410Z,81.52
2022-12-24T02:49:08.400Z,81.63
2022-12-24T02:50:08.412Z,81.43
2022-12-24T02:51:08.380Z,81.63
2022-12-24T02:52:08.388Z,81.63
2022-12-24T02:53:08.351Z,81.52
2022-12-24T02:54:08.342Z,81.12
2022-12-24T02:55:08.356Z,81.12
2022-12-24T02:56:08.318Z,80.91
2022-12-24T02:57:08.309Z,81.12
2022-12-24T02:58:08.289Z,81.32
2022-12-24T02:59:08.263Z,81.52
2022-12-24T03:00:08.261Z,81.63
2022-12-24T03:01:08.417Z,81.52
2022-12-24T03:02:08.336Z,81.43
2022-12-24T03:03:08.443Z,81.43
2022-12-24T03:04:08.212Z,81.73
2022-12-24T03:05:08.192Z,81.73
2022-12-24T03:06:08.201Z,81.73
2022-12-24T03:07:08.175Z,81.84
2022-12-24T03:08:08.163Z,81.63
2022-12-24T03:09:08.157Z,81.43
2022-12-24T03:10:08.151Z,81.43
2022-12-24T03:11:08.138Z,81.63
2022-12-24T03:12:08.102Z,81.63
2022-12-24T03:13:08.092Z,82.04
2022-12-24T03:14:08.078Z,82.14
2022-12-24T03:15:08.069Z,82.14
2022-12-24T03:16:08.114Z,82.24
2022-12-24T03:17:08.041Z,81.73
2022-12-24T03:18:08.033Z,81.73
2022-12-24T03:19:08.412Z,81.63
2022-12-24T03:20:08.002Z,81.73
2022-12-24T03:21:08.006Z,82.04
2022-12-24T03:22:07.974Z,82.04
2022-12-24T03:23:07.960Z,82.24
2022-12-24T03:24:07.951Z,82.35
2022-12-24T03:25:07.939Z,82.45
2022-12-24T03:26:07.945Z,82.45
2022-12-24T03:27:07.910Z,82.24
2022-12-24T03:28:07.889Z,82.14
2022-12-24T03:29:07.882Z,82.35
2022-12-24T03:30:07.879Z,82.35
2022-12-24T03:31:07.924Z,82.55
2022-12-24T03:32:07.864Z,82.76
2022-12-24T03:33:07.831Z,82.35
2022-12-24T03:34:07.821Z,82.45
2022-12-24T03:35:07.805Z,82.65
2022-12-24T03:36:07.807Z,82.35
2022-12-24T03:37:07.782Z,82.45
2022-12-24T03:38:07.763Z,82.14
2022-12-24T03:39:07.751Z,82.14
2022-12-24T03:40:07.748Z,82.45
2022-12-24T03:41:07.743Z,82.45
2022-12-24T03:42:07.711Z,82.14
2022-12-24T03:43:07.717Z,82.41
2022-12-24T03:44:07.704Z,82.35
2022-12-24T03:45:07.681Z,82.24
2022-12-24T03:46:07.912Z,82.21
2022-12-24T03:47:07.640Z,82.21
2022-12-24T03:48:07.637Z,82.62
2022-12-24T03:49:07.622Z,82.55
2022-12-24T03:50:07.617Z,82.76
2022-12-24T03:51:07.591Z,82.96
2022-12-24T03:52:07.603Z,82.76
2022-12-24T03:53:07.573Z,82.96
2022-12-24T03:54:07.550Z,83.17
2022-12-24T03:55:07.554Z,82.96
2022-12-24T03:56:07.523Z,82.76
2022-12-24T03:57:07.533Z,82.86
2022-12-24T03:58:07.502Z,82.86
2022-12-24T03:59:07.492Z,83.17
2022-12-24T04:00:07.472Z,83.58
2022-12-24T04:01:07.561Z,83.37
2022-12-24T04:02:07.617Z,83.37
2022-12-24T04:03:07.530Z,83.17
2022-12-24T04:04:07.424Z,82.55
2022-12-24T04:05:07.411Z,82.76
2022-12-24T04:06:07.423Z,82.86
2022-12-24T04:07:07.405Z,82.76
2022-12-24T04:08:07.373Z,82.86
2022-12-24T04:09:07.353Z,82.65
2022-12-24T04:10:07.355Z,82.65
2022-12-24T04:11:09.889Z,82.76
2022-12-24T04:12:07.323Z,82.76
2022-12-24T04:13:07.322Z,82.76
2022-12-24T04:14:07.293Z,82.76
2022-12-24T04:15:07.270Z,82.65
2022-12-24T04:16:07.327Z,82.86
2022-12-24T04:17:07.248Z,82.86
2022-12-24T04:18:07.293Z,82.86
2022-12-24T04:19:07.230Z,82.86
2022-12-24T04:20:07.215Z,82.96
2022-12-24T04:21:07.224Z,82.96
2022-12-24T04:22:07.182Z,82.96
2022-12-24T04:23:07.209Z,83.06
2022-12-24T04:24:07.165Z,83.17
2022-12-24T04:25:07.151Z,83.27
2022-12-24T04:26:07.130Z,83.27
2022-12-24T04:27:07.138Z,83.37
2022-12-24T04:28:07.126Z,83.27
2022-12-24T04:29:07.095Z,83.37
2022-12-24T04:30:07.085Z,83.37
2022-12-24T04:31:07.088Z,82.96
2022-12-24T04:32:07.097Z,82.96
2022-12-24T04:33:07.080Z,82.86
2022-12-24T04:34:07.037Z,83.06
2022-12-24T04:35:07.011Z,83.27
2022-12-24T04:36:07.015Z,83.27
2022-12-24T04:37:07.062Z,83.27
2022-12-24T04:38:06.999Z,83.17
2022-12-24T04:39:06.963Z,83.17
2022-12-24T04:40:06.962Z,83.17
2022-12-24T04:41:06.926Z,83.27
2022-12-24T04:42:06.927Z,83.27
2022-12-24T04:43:06.943Z,83.17
2022-12-24T04:44:06.895Z,83.37
2022-12-24T04:45:06.875Z,83.47
2022-12-24T04:46:06.939Z,83.58
2022-12-24T04:47:06.863Z,83.58
2022-12-24T04:48:06.876Z,83.68
2022-12-24T04:49:06.840Z,83.78
2022-12-24T04:50:06.815Z,83.88
2022-12-24T04:51:06.800Z,83.98
2022-12-24T04:52:06.824Z,84.09
2022-12-24T04:53:06.775Z,84.19
2022-12-24T04:54:06.786Z,84.29
2022-12-24T04:55:06.746Z,84.39
2022-12-24T04:56:06.747Z,84.39
2022-12-24T04:57:06.724Z,84.64
2022-12-24T04:58:06.714Z,84.74
2022-12-24T04:59:06.730Z,84.74
2022-12-24T05:00:06.701Z,84.74
2022-12-24T05:01:06.839Z,84.84
2022-12-24T05:02:06.889Z,84.95
2022-12-24T05:03:06.698Z,84.95
2022-12-24T05:04:06.655Z,85.05
2022-12-24T05:05:06.626Z,85.05
2022-12-24T05:06:06.620Z,85.05
2022-12-24T05:07:06.588Z,85.15
2022-12-24T05:08:06.594Z,85.15
2022-12-24T05:09:06.592Z,85.15
2022-12-24T05:10:06.565Z,85.25
2022-12-24T05:11:06.546Z,85.25
2022-12-24T05:12:06.546Z,85.25
2022-12-24T05:13:06.516Z,85.46
2022-12-24T05:14:06.514Z,85.46
2022-12-24T05:15:06.483Z,85.46
2022-12-24T05:16:06.489Z,85.56
2022-12-24T05:17:06.546Z,85.56
2022-12-24T05:18:06.454Z,85.46
2022-12-24T05:19:06.467Z,85.46
2022-12-24T05:20:06.423Z,85.56
2022-12-24T05:21:06.426Z,85.56
2022-12-24T05:22:06.406Z,85.66
2022-12-24T05:23:06.390Z,85.66
2022-12-24T05:24:06.395Z,85.66
2022-12-24T05:25:06.364Z,85.77
2022-12-24T05:26:06.361Z,85.87
2022-12-24T05:27:06.353Z,85.91
2022-12-24T05:28:06.315Z,85.87
2022-12-24T05:29:06.344Z,86.01
2022-12-24T05:30:06.292Z,86.01
2022-12-24T05:31:06.317Z,86.07
2022-12-24T05:32:06.268Z,86.32
2022-12-24T05:33:06.284Z,86.32
2022-12-24T05:34:06.268Z,86.32
2022-12-24T05:35:06.265Z,86.42
2022-12-24T05:36:06.215Z,86.52
2022-12-24T05:37:06.190Z,86.87
2022-12-24T05:38:06.186Z,87.08
2022-12-24T05:39:11.611Z,87.18
2022-12-24T05:40:07.158Z,87.28
2022-12-24T05:41:06.146Z,87.49
2022-12-24T05:42:06.134Z,87.59
2022-12-24T05:43:06.146Z,87.79
2022-12-24T05:44:06.158Z,87.79
2022-12-24T05:45:06.136Z,87.79
2022-12-24T05:46:06.147Z,87.79
2022-12-24T05:47:06.090Z,87.79
2022-12-24T05:48:06.037Z,87.79
2022-12-24T05:49:06.121Z,87.90
2022-12-24T05:50:06.018Z,87.90
2022-12-24T05:51:06.019Z,87.90
2022-12-24T05:52:06.019Z,87.76
2022-12-24T05:53:06.380Z,87.65
2022-12-24T05:54:06.036Z,87.65
2022-12-24T05:55:05.967Z,87.55
2022-12-24T05:56:05.946Z,87.55
2022-12-24T05:57:05.937Z,87.55
2022-12-24T05:58:05.900Z,87.55
2022-12-24T05:59:05.939Z,87.55
2022-12-24T06:00:05.903Z,87.45
2022-12-24T06:01:05.952Z,87.55
2022-12-24T06:02:05.953Z,87.41
2022-12-24T06:03:05.969Z,87.41
2022-12-24T06:04:05.945Z,87.41
2022-12-24T06:05:05.923Z,87.30
2022-12-24T06:06:05.835Z,87.30
2022-12-24T06:07:05.808Z,87.30
2022-12-24T06:08:05.819Z,87.51
2022-12-24T06:09:05.794Z,87.61
2022-12-24T06:10:05.765Z,87.61
2022-12-24T06:11:05.772Z,87.61
2022-12-24T06:12:12.945Z,87.71
2022-12-24T06:13:05.746Z,88.23
2022-12-24T06:14:05.737Z,88.64
2022-12-24T06:15:05.704Z,88.94
2022-12-24T06:16:05.791Z,89.25
2022-12-24T06:17:05.671Z,89.56
2022-12-24T06:18:05.663Z,90.28
2022-12-24T06:19:05.669Z,90.37
2022-12-24T06:20:05.637Z,90.48
2022-12-24T06:21:05.662Z,90.79
2022-12-24T06:22:05.601Z,91.20
2022-12-24T06:23:05.595Z,91.30
2022-12-24T06:24:05.584Z,91.44
2022-12-24T06:25:05.581Z,91.50
2022-12-24T06:26:05.551Z,91.65
2022-12-24T06:27:05.546Z,91.75
2022-12-24T06:28:05.522Z,92.16
2022-12-24T06:29:05.512Z,92.27
2022-12-24T06:30:05.543Z,92.36
2022-12-24T06:31:05.588Z,92.36
2022-12-24T06:32:05.470Z,92.47
2022-12-24T06:33:05.478Z,92.47
2022-12-24T06:34:05.464Z,92.47
2022-12-24T06:35:05.454Z,92.68
2022-12-24T06:36:05.426Z,92.78
2022-12-24T06:37:05.415Z,92.78
2022-12-24T06:38:05.394Z,92.78
2022-12-24T06:39:05.383Z,92.78
2022-12-24T06:40:05.390Z,92.78
2022-12-24T06:41:05.367Z,92.78
2022-12-24T06:42:05.345Z,92.88
2022-12-24T06:43:05.332Z,92.88
2022-12-24T06:44:05.365Z,92.78
2022-12-24T06:45:08.314Z,92.68
2022-12-24T06:46:05.408Z,92.78
2022-12-24T06:47:05.295Z,93.08
2022-12-24T06:48:05.263Z,93.19
2022-12-24T06:49:05.255Z,93.19
2022-12-24T06:50:05.250Z,93.29
2022-12-24T06:51:05.240Z,93.29
2022-12-24T06:52:05.219Z,93.29
2022-12-24T06:53:05.212Z,93.29
2022-12-24T06:54:05.183Z,93.19
2022-12-24T06:55:05.203Z,93.39
2022-12-24T06:56:05.164Z,93.49
2022-12-24T06:57:05.144Z,93.60
2022-12-24T06:58:05.149Z,93.80
2022-12-24T06:59:05.778Z,93.90
2022-12-24T07:00:05.128Z,94.01
2022-12-24T07:01:05.142Z,94.01
2022-12-24T07:02:05.249Z,94.11
2022-12-24T07:03:05.063Z,94.01
2022-12-24T07:04:05.095Z,94.01
2022-12-24T07:05:05.052Z,94.01
2022-12-24T07:06:05.027Z,94.01
2022-12-24T07:07:05.022Z,94.01
2022-12-24T07:08:04.999Z,94.01
2022-12-24T07:09:04.983Z,94.11
2022-12-24T07:10:05.072Z,94.26
2022-12-24T07:11:04.963Z,94.36
2022-12-24T07:12:04.939Z,94.46
2022-12-24T07:13:04.935Z,94.46
2022-12-24T07:14:04.913Z,94.56
2022-12-24T07:15:04.925Z,94.56
2022-12-24T07:16:05.099Z,94.56
2022-12-24T07:17:05.042Z,94.67
2022-12-24T07:18:04.868Z,94.67
2022-12-24T07:19:04.853Z,94.77
2022-12-24T07:20:04.843Z,94.92
2022-12-24T07:21:04.896Z,95.02
2022-12-24T07:22:07.800Z,95.12
2022-12-24T07:23:05.814Z,95.12
2022-12-24T07:24:04.784Z,95.37
2022-12-24T07:25:04.782Z,95.47
2022-12-24T07:26:04.751Z,95.57
2022-12-24T07:27:04.746Z,95.68
2022-12-24T07:28:04.732Z,95.78
2022-12-24T07:29:04.726Z,95.98
2022-12-24T07:30:04.764Z,95.98
2022-12-24T07:31:04.754Z,95.98
2022-12-24T07:32:04.668Z,96.09
2022-12-24T07:33:04.665Z,96.23
2022-12-24T07:34:04.655Z,96.34
2022-12-24T07:35:04.954Z,96.44
2022-12-24T07:36:04.626Z,96.55
2022-12-24T07:37:04.604Z,96.65
2022-12-24T07:38:04.596Z,96.75
2022-12-24T07:39:04.585Z,96.85
2022-12-24T07:40:04.587Z,96.95
2022-12-24T07:41:04.553Z,97.06
2022-12-24T07:42:04.556Z,97.06
2022-12-24T07:43:04.524Z,97.16
2022-12-24T07:44:04.521Z,97.16
2022-12-24T07:45:04.514Z,97.16
2022-12-24T07:46:04.483Z,97.31
2022-12-24T07:47:04.601Z,97.41
2022-12-24T07:48:04.465Z,97.52
2022-12-24T07:49:04.446Z,97.52
2022-12-24T07:50:04.457Z,97.62
2022-12-24T07:51:04.439Z,97.62
2022-12-24T07:52:04.410Z,97.62
2022-12-24T07:53:04.402Z,97.62
2022-12-24T07:54:04.374Z,97.72
2022-12-24T07:55:04.386Z,97.72
2022-12-24T07:56:10.458Z,97.72
2022-12-24T07:57:05.335Z,97.82
2022-12-24T07:58:04.326Z,97.92
2022-12-24T07:59:04.315Z,97.92
2022-12-24T08:00:04.323Z,97.92
2022-12-24T08:01:04.411Z,98.03
2022-12-24T08:02:04.482Z,98.13
2022-12-24T08:03:04.416Z,98.13
2022-12-24T08:04:04.304Z,99.99
2022-12-24T08:05:04.259Z,99.99
2022-12-24T08:06:04.215Z,99.99
2022-12-24T08:07:04.220Z,99.99
2022-12-24T08:08:04.192Z,99.99
2022-12-24T08:09:04.173Z,99.99
2022-12-24T08:10:04.200Z,99.99
2022-12-24T08:11:04.146Z,99.99
2022-12-24T08:12:04.141Z,99.99
2022-12-24T08:13:04.124Z,99.99
2022-12-24T08:14:04.110Z,98.37
2022-12-24T08:15:04.114Z,96.73
2022-12-24T08:16:04.191Z,95.54
2022-12-24T08:17:04.090Z,94.83
2022-12-24T08:18:04.068Z,94.67
2022-12-24T08:19:04.051Z,94.67
2022-12-24T08:20:04.061Z,94.77
2022-12-24T08:21:04.026Z,95.02
2022-12-24T08:22:04.007Z,95.32
2022-12-24T08:23:04.014Z,95.43
2022-12-24T08:24:04.008Z,95.74
2022-12-24T08:25:03.990Z,96.04
2022-12-24T08:26:03.973Z,96.30
2022-12-24T08:27:03.936Z,96.60
2022-12-24T08:28:03.923Z,96.81
2022-12-24T08:29:03.924Z,97.02
2022-12-24T08:30:03.925Z,97.12
2022-12-24T08:31:03.992Z,97.22
2022-12-24T08:32:03.945Z,97.32
2022-12-24T08:33:03.867Z,97.42
2022-12-24T08:34:03.877Z,97.53
2022-12-24T08:35:03.869Z,97.63
2022-12-24T08:36:03.808Z,97.73
2022-12-24T08:37:03.805Z,97.79
2022-12-24T08:38:03.795Z,97.83
2022-12-24T08:39:03.874Z,97.89
2022-12-24T08:40:03.783Z,97.89
2022-12-24T08:41:03.737Z,97.89
2022-12-24T08:42:03.783Z,97.89
2022-12-24T08:43:03.734Z,97.99
2022-12-24T08:44:03.714Z,98.04
2022-12-24T08:45:03.722Z,97.99
2022-12-24T08:46:03.869Z,97.99
2022-12-24T08:47:03.671Z,98.10
2022-12-24T08:48:03.655Z,98.10
2022-12-24T08:49:03.667Z,98.10
2022-12-24T08:50:03.646Z,98.10
2022-12-24T08:51:03.639Z,98.10
2022-12-24T08:52:03.596Z,97.99
2022-12-24T08:53:03.610Z,97.99
2022-12-24T08:54:03.565Z,97.89
2022-12-24T08:55:03.584Z,97.79
2022-12-24T08:56:03.559Z,97.64
2022-12-24T08:57:03.548Z,97.54
2022-12-24T08:58:03.535Z,97.54
2022-12-24T08:59:03.515Z,97.54
2022-12-24T09:00:03.520Z,97.54
2022-12-24T09:01:03.579Z,97.54
2022-12-24T09:02:03.634Z,97.44
2022-12-24T09:03:03.503Z,97.44
2022-12-24T09:04:03.469Z,97.39
2022-12-24T09:05:03.426Z,97.29
2022-12-24T09:06:03.437Z,97.19
2022-12-24T09:07:03.435Z,97.19
2022-12-24T09:08:03.423Z,97.19
2022-12-24T09:09:03.378Z,97.08
2022-12-24T09:10:03.371Z,96.98
2022-12-24T09:11:03.367Z,96.83
2022-12-24T09:12:03.334Z,96.73
2022-12-24T09:13:03.335Z,96.42
2022-12-24T09:14:03.309Z,96.32
2022-12-24T09:15:04.356Z,96.32
2022-12-24T09:16:03.352Z,96.22
2022-12-24T09:17:03.389Z,96.22
2022-12-24T09:18:03.268Z,96.12
2022-12-24T09:19:03.261Z,96.12
2022-12-24T09:20:03.238Z,96.01
2022-12-24T09:21:03.235Z,95.91
2022-12-24T09:22:03.195Z,95.91
2022-12-24T09:23:03.213Z,95.81
2022-12-24T09:24:03.174Z,95.70
2022-12-24T09:25:03.184Z,95.70
2022-12-24T09:26:03.156Z,95.66
2022-12-24T09:27:03.147Z,95.56
2022-12-24T09:28:03.122Z,95.46
2022-12-24T09:29:03.126Z,95.46
2022-12-24T09:30:03.103Z,95.46
2022-12-24T09:31:03.108Z,95.36
2022-12-24T09:32:03.125Z,95.25
2022-12-24T09:33:03.067Z,95.10
2022-12-24T09:34:03.040Z,94.90
2022-12-24T09:35:03.020Z,95.00
2022-12-24T09:36:03.036Z,95.10
2022-12-24T09:37:03.021Z,95.00
2022-12-24T09:38:03.188Z,94.75
2022-12-24T09:39:02.983Z,94.55
2022-12-24T09:40:03.026Z,94.14
2022-12-24T09:41:08.704Z,93.84
2022-12-24T09:42:03.956Z,92.91
2022-12-24T09:43:02.926Z,92.40
2022-12-24T09:44:02.896Z,92.19
2022-12-24T09:45:02.911Z,91.99
2022-12-24T09:46:02.922Z,91.48
2022-12-24T09:47:06.789Z,91.27
2022-12-24T09:48:03.917Z,90.15
2022-12-24T09:49:02.842Z,89.43
2022-12-24T09:50:02.831Z,88.88
2022-12-24T09:51:02.833Z,88.98
2022-12-24T09:52:02.818Z,89.18
2022-12-24T09:53:02.785Z,89.29
2022-12-24T09:54:02.801Z,88.98
2022-12-24T09:55:02.767Z,88.78
2022-12-24T09:56:02.792Z,88.68
2022-12-24T09:57:02.741Z,88.37
2022-12-24T09:58:02.728Z,88.17
2022-12-24T09:59:02.724Z,87.76
2022-12-24T10:00:02.714Z,87.65
2022-12-24T10:01:02.914Z,87.76
2022-12-24T10:02:02.831Z,87.76
2022-12-24T10:03:02.771Z,87.41
2022-12-24T10:04:02.658Z,87.51
2022-12-24T10:05:02.644Z,87.71
2022-12-24T10:06:02.642Z,87.10
2022-12-24T10:07:02.617Z,87.10
2022-12-24T10:08:02.609Z,87.51
2022-12-24T10:09:02.606Z,87.71
2022-12-24T10:10:02.576Z,87.51
2022-12-24T10:11:02.567Z,87.61
2022-12-24T10:12:02.647Z,87.61
2022-12-24T10:13:02.552Z,87.82
2022-12-24T10:14:02.528Z,88.12
2022-12-24T10:15:02.522Z,87.82
2022-12-24T10:16:02.517Z,87.00
2022-12-24T10:17:02.531Z,86.94
2022-12-24T10:18:02.505Z,86.83
2022-12-24T10:19:02.486Z,85.77
2022-12-24T10:20:02.457Z,85.50
2022-12-24T10:21:02.478Z,85.77
2022-12-24T10:22:02.478Z,85.77
2022-12-24T10:23:02.385Z,85.97
2022-12-24T10:24:02.389Z,86.18
2022-12-24T10:25:02.368Z,85.88
2022-12-24T10:26:02.388Z,85.77
2022-12-24T10:27:02.360Z,85.88
2022-12-24T10:28:02.347Z,85.97
2022-12-24T10:29:02.339Z,85.88
2022-12-24T10:30:02.327Z,85.77
2022-12-24T10:31:02.431Z,85.77
2022-12-24T10:32:02.291Z,85.97
2022-12-24T10:33:02.278Z,85.77
2022-12-24T10:34:02.321Z,85.57
2022-12-24T10:35:02.312Z,85.16
2022-12-24T10:36:06.772Z,85.36
2022-12-24T10:37:03.219Z,85.02
2022-12-24T10:38:02.229Z,84.91
2022-12-24T10:39:02.211Z,85.12
2022-12-24T10:40:02.186Z,85.12
2022-12-24T10:41:02.157Z,85.02
2022-12-24T10:42:02.159Z,85.12
2022-12-24T10:43:02.152Z,85.22
2022-12-24T10:44:02.143Z,85.22
2022-12-24T10:45:02.113Z,85.12
2022-12-24T10:46:02.198Z,85.12
2022-12-24T10:47:02.097Z,85.22
2022-12-24T10:48:02.088Z,85.18
2022-12-24T10:49:02.058Z,84.88
2022-12-24T10:50:02.049Z,84.88
2022-12-24T10:51:02.083Z,84.88
2022-12-24T10:52:02.032Z,84.67
2022-12-24T10:53:02.028Z,84.57
2022-12-24T10:54:02.008Z,84.57
2022-12-24T10:55:01.987Z,83.65
2022-12-24T10:56:02.004Z,82.53
2022-12-24T10:57:02.042Z,82.63
2022-12-24T10:58:01.950Z,83.04
2022-12-24T10:59:01.917Z,82.93
2022-12-24T11:00:01.929Z,82.79
2022-12-24T11:01:01.941Z,82.49
2022-12-24T11:02:02.161Z,82.49
2022-12-24T11:03:02.103Z,83.20
2022-12-24T11:04:01.860Z,83.51
2022-12-24T11:05:01.852Z,83.47
2022-12-24T11:06:01.867Z,83.26
2022-12-24T11:07:01.825Z,83.26
2022-12-24T11:08:01.816Z,83.26
2022-12-24T11:09:01.790Z,82.04
2022-12-24T11:10:01.823Z,81.94
2022-12-24T11:11:01.777Z,82.00
2022-12-24T11:12:08.423Z,81.59
2022-12-24T11:13:35.626Z,81.29
2022-12-24T11:14:02.769Z,81.49
2022-12-24T11:15:01.722Z,81.18
2022-12-24T11:16:01.786Z,81.18
2022-12-24T11:17:01.699Z,81.18
2022-12-24T11:18:01.682Z,81.90
2022-12-24T11:19:01.663Z,81.80
2022-12-24T11:20:01.654Z,81.29
2022-12-24T11:21:01.640Z,81.09
2022-12-24T11:22:01.655Z,81.49
2022-12-24T11:23:01.857Z,80.57
2022-12-24T11:24:01.643Z,80.88
2022-12-24T11:25:01.605Z,81.18
2022-12-24T11:26:01.581Z,80.78
2022-12-24T11:27:01.583Z,81.18
2022-12-24T11:28:01.561Z,81.49
2022-12-24T11:29:01.534Z,81.59
2022-12-24T11:30:04.006Z,81.02
2022-12-24T11:31:02.790Z,81.02
2022-12-24T11:32:01.523Z,81.32
2022-12-24T11:33:01.502Z,81.02
2022-12-24T11:34:01.489Z,81.73
2022-12-24T11:35:01.451Z,81.63
2022-12-24T11:36:01.454Z,81.57
2022-12-24T11:37:01.440Z,81.98
2022-12-24T11:38:01.466Z,82.08
2022-12-24T11:39:01.565Z,81.67
2022-12-24T11:40:01.411Z,81.77
2022-12-24T11:41:01.375Z,81.98
2022-12-24T11:42:01.367Z,82.08
2022-12-24T11:43:01.365Z,82.39
2022-12-24T11:44:01.352Z,82.59
2022-12-24T11:45:01.343Z,82.79
2022-12-24T11:46:01.310Z,82.69
2022-12-24T11:47:01.304Z,82.28
2022-12-24T11:48:01.330Z,82.42
2022-12-24T11:49:05.968Z,82.22
2022-12-24T11:50:20.450Z,82.22
2022-12-24T11:51:02.247Z,82.32
2022-12-24T11:52:01.299Z,82.32
2022-12-24T11:53:01.233Z,82.22
2022-12-24T11:54:01.229Z,82.32
2022-12-24T11:55:01.200Z,82.39
2022-12-24T11:56:01.171Z,82.08
2022-12-24T11:57:01.182Z,81.77
2022-12-24T11:58:01.173Z,81.87
2022-12-24T11:59:01.195Z,81.57
2022-12-24T12:00:01.118Z,81.46
2022-12-24T12:01:01.120Z,81.98
2022-12-24T12:02:01.184Z,81.73
2022-12-24T12:03:01.167Z,81.53
2022-12-24T12:04:01.145Z,81.53
2022-12-24T12:05:01.059Z,81.23
2022-12-24T12:06:01.054Z,81.23
2022-12-24T12:07:01.037Z,80.61
2022-12-24T12:08:01.079Z,80.41
2022-12-24T12:09:01.001Z,80.78
2022-12-24T12:10:01.021Z,80.78
2022-12-24T12:11:00.985Z,80.37
2022-12-24T12:12:00.998Z,79.04
2022-12-24T12:13:01.015Z,79.25
2022-12-24T12:14:00.948Z,79.55
2022-12-24T12:15:00.921Z,79.75
2022-12-24T12:16:01.017Z,78.84
2022-12-24T12:17:00.931Z,78.74
2022-12-24T12:18:00.909Z,78.94
2022-12-24T12:19:00.893Z,79.21
2022-12-24T12:20:00.875Z,79.21
2022-12-24T12:21:00.901Z,78.91
2022-12-24T12:22:00.835Z,78.91
2022-12-24T12:23:00.851Z,78.50
2022-12-24T12:24:00.801Z,78.70
2022-12-24T12:25:00.807Z,78.80
2022-12-24T12:26:00.802Z,79.41
2022-12-24T12:27:00.770Z,79.11
2022-12-24T12:28:00.762Z,78.70
2022-12-24T12:29:00.778Z,78.50
2022-12-24T12:30:00.816Z,78.84
2022-12-24T12:31:00.776Z,78.74
2022-12-24T12:32:00.749Z,78.94
2022-12-24T12:33:00.821Z,78.94
2022-12-24T12:34:00.695Z,79.14
2022-12-24T12:35:00.663Z,79.04
2022-12-24T12:36:00.658Z,79.75
2022-12-24T12:37:00.635Z,80.07
2022-12-24T12:38:00.720Z,80.47
2022-12-24T12:39:00.630Z,80.57
2022-12-24T12:40:00.626Z,80.78
2022-12-24T12:41:00.582Z,79.45
2022-12-24T12:42:00.572Z,78.64
2022-12-24T12:43:00.562Z,79.28
2022-12-24T12:44:00.595Z,79.18
2022-12-24T12:45:00.533Z,78.57
2022-12-24T12:46:00.514Z,78.84
2022-12-24T12:47:00.560Z,78.88
2022-12-24T12:48:00.491Z,78.06
2022-12-24T12:49:03.153Z,78.27
2022-12-24T12:50:00.480Z,78.57
2022-12-24T12:51:00.449Z,78.37
2022-12-24T12:52:00.452Z,78.57